Time;durP1;ratioP1;P1;durP2;ratioP2;P2;SDS_P1;SDS_P2;PMS_P1;PMS_P2;Temp;Humidity;BMP_temperature;BMP_pressure;BME280_temperature;BME280_humidity;BME280_pressure;Samples;Min_cycle;Max_cycle;Signal;HPM_P1;HPM_P2
2023/08/06 00:00:06;;;;;;;25.73;22.33;;;;;;;;;;5002786;28;20030;-72
2023/08/06 00:02:34;;;;;;;24.05;21.30;;;;;;;;;;5004952;28;20037;-72
2023/08/06 00:05:00;;;;;;;23.55;20.95;;;;;;;;;;5004953;28;20045;-72
2023/08/06 00:07:25;;;;;;;21.05;17.55;;;;;;;;;;5003530;28;20041;-72
2023/08/06 00:09:51;;;;;;;21.42;19.08;;;;;;;;;;5004487;28;20444;-72
2023/08/06 00:12:16;;;;;;;24.38;20.20;;;;;;;;;;5004823;28;20038;-72
2023/08/06 00:14:42;;;;;;;22.83;19.42;;;;;;;;;;5003923;28;20041;-72
2023/08/06 00:17:08;;;;;;;21.77;19.52;;;;;;;;;;5004889;28;20026;-72
2023/08/06 00:19:34;;;;;;;25.00;19.63;;;;;;;;;;5004477;28;20052;-72
2023/08/06 00:21:59;;;;;;;21.98;19.15;;;;;;;;;;5004487;28;20038;-72
2023/08/06 00:24:25;;;;;;;25.33;19.52;;;;;;;;;;5003785;28;20064;-72
2023/08/06 00:26:50;;;;;;;22.83;19.42;;;;;;;;;;5004899;28;20109;-72
2023/08/06 00:29:16;;;;;;;24.13;19.25;;;;;;;;;;5004575;28;20061;-72
2023/08/06 00:31:41;;;;;;;25.95;20.25;;;;;;;;;;5001877;28;20049;-72
2023/08/06 00:34:07;;;;;;;25.85;19.67;;;;;;;;;;5002470;28;20045;-72
2023/08/06 00:36:32;;;;;;;25.77;19.90;;;;;;;;;;4999476;28;20044;-72
2023/08/06 00:39:00;;;;;;;26.23;19.90;;;;;;;;;;5003765;28;20446;-72
2023/08/06 00:41:25;;;;;;;29.73;21.67;;;;;;;;;;4998727;28;20045;-72
2023/08/06 00:43:51;;;;;;;24.23;20.45;;;;;;;;;;5002830;28;20041;-72
2023/08/06 00:46:17;;;;;;;27.67;21.45;;;;;;;;;;5001244;28;20508;-74
2023/08/06 00:48:43;;;;;;;32.90;22.58;;;;;;;;;;5003434;28;20029;-72
2023/08/06 00:51:11;;;;;;;35.38;24.13;;;;;;;;;;5004508;28;20038;-72
2023/08/06 00:53:38;;;;;;;33.28;22.58;;;;;;;;;;5001580;28;20034;-72
2023/08/06 00:56:03;;;;;;;34.97;21.13;;;;;;;;;;5004786;28;20049;-73
2023/08/06 00:58:29;;;;;;;29.15;23.27;;;;;;;;;;5001932;28;20037;-73
2023/08/06 01:00:55;;;;;;;28.80;22.65;;;;;;;;;;5019481;28;20701;-72
2023/08/06 01:03:20;;;;;;;25.17;20.65;;;;;;;;;;5005361;28;20034;-72
2023/08/06 01:05:46;;;;;;;28.73;21.75;;;;;;;;;;5006842;28;20029;-73
2023/08/06 01:08:46;;;;;;;25.58;21.77;;;;;;;;;;5005553;28;20390;-72
2023/08/06 01:11:47;;;;;;;24.73;20.50;;;;;;;;;;5006151;28;20036;-73
2023/08/06 01:14:23;;;;;;;20.70;18.52;;;;;;;;;;5006452;28;20041;-72
2023/08/06 01:16:51;;;;;;;20.27;17.90;;;;;;;;;;5006436;28;20029;-73
2023/08/06 01:19:21;;;;;;;19.05;17.17;;;;;;;;;;5007615;28;20057;-72
2023/08/06 01:21:46;;;;;;;22.13;19.15;;;;;;;;;;5006831;28;20485;-73
2023/08/06 01:24:12;;;;;;;20.35;18.20;;;;;;;;;;5008092;28;20030;-72
2023/08/06 01:26:54;;;;;;;19.20;16.30;;;;;;;;;;5005655;28;20038;-73
2023/08/06 01:29:24;;;;;;;22.75;17.92;;;;;;;;;;5006382;28;20042;-73
2023/08/06 01:31:52;;;;;;;18.92;16.50;;;;;;;;;;5006423;28;20124;-73
2023/08/06 01:34:21;;;;;;;22.67;16.98;;;;;;;;;;5007187;28;20036;-72
2023/08/06 01:36:48;;;;;;;18.75;16.35;;;;;;;;;;5006410;28;20394;-73
2023/08/06 01:39:14;;;;;;;19.35;17.45;;;;;;;;;;5006167;28;20060;-72
2023/08/06 01:41:40;;;;;;;18.67;16.77;;;;;;;;;;5007818;28;20029;-73
2023/08/06 01:44:05;;;;;;;17.13;15.38;;;;;;;;;;5016555;28;20034;-72
2023/08/06 01:46:31;;;;;;;17.73;15.98;;;;;;;;;;5005561;28;20038;-73
2023/08/06 01:48:56;;;;;;;16.50;15.00;;;;;;;;;;5007014;28;20057;-73
2023/08/06 01:51:22;;;;;;;17.40;15.63;;;;;;;;;;5006035;28;20086;-72
2023/08/06 01:53:47;;;;;;;15.98;14.48;;;;;;;;;;5004800;28;20038;-72
2023/08/06 01:56:13;;;;;;;18.40;16.48;;;;;;;;;;5007357;28;20063;-72
2023/08/06 01:58:39;;;;;;;17.13;15.57;;;;;;;;;;5005245;28;20041;-73
2023/08/06 02:01:05;;;;;;;16.77;15.25;;;;;;;;;;5004480;28;20083;-73
2023/08/06 02:03:30;;;;;;;15.75;14.23;;;;;;;;;;5003888;28;20033;-73
2023/08/06 02:05:57;;;;;;;16.23;14.38;;;;;;;;;;5005292;28;20117;-73
2023/08/06 02:08:22;;;;;;;15.95;14.35;;;;;;;;;;5006856;28;20076;-72
2023/08/06 02:10:48;;;;;;;14.52;13.32;;;;;;;;;;5005298;28;20497;-72
2023/08/06 02:13:14;;;;;;;14.43;13.35;;;;;;;;;;5004210;28;20034;-73
2023/08/06 02:15:44;;;;;;;14.23;13.07;;;;;;;;;;5005112;28;20034;-73
2023/08/06 02:18:09;;;;;;;14.63;13.23;;;;;;;;;;5006433;28;20030;-73
2023/08/06 02:20:35;;;;;;;13.30;12.30;;;;;;;;;;5006321;28;20032;-72
2023/08/06 02:23:01;;;;;;;13.85;12.70;;;;;;;;;;5005990;28;20040;-73
2023/08/06 02:25:26;;;;;;;13.18;12.00;;;;;;;;;;5006723;28;20038;-72
2023/08/06 02:27:52;;;;;;;13.25;12.05;;;;;;;;;;5004999;28;20037;-72
2023/08/06 02:30:18;;;;;;;13.27;12.05;;;;;;;;;;5006147;28;20030;-72
2023/08/06 02:32:44;;;;;;;13.50;12.40;;;;;;;;;;5005489;28;20045;-72
2023/08/06 02:35:09;;;;;;;12.13;11.23;;;;;;;;;;5004981;28;20584;-73
2023/08/06 02:37:35;;;;;;;12.68;11.55;;;;;;;;;;5004550;28;20445;-74
2023/08/06 02:40:00;;;;;;;13.38;12.38;;;;;;;;;;5002858;28;20038;-73
2023/08/06 02:42:26;;;;;;;12.05;11.15;;;;;;;;;;5015823;28;20033;-73
2023/08/06 02:44:55;;;;;;;12.23;11.32;;;;;;;;;;5003839;28;20401;-73
2023/08/06 02:47:21;;;;;;;12.20;11.30;;;;;;;;;;5004152;28;20129;-73
2023/08/06 02:49:46;;;;;;;12.25;11.35;;;;;;;;;;5003158;28;20517;-74
2023/08/06 02:52:12;;;;;;;12.18;11.18;;;;;;;;;;4994831;28;20030;-73
2023/08/06 02:54:38;;;;;;;11.82;10.68;;;;;;;;;;5003627;28;20037;-73
2023/08/06 02:57:05;;;;;;;11.98;11.07;;;;;;;;;;5006351;28;20048;-73
2023/08/06 02:59:33;;;;;;;12.07;11.07;;;;;;;;;;5004472;28;20719;-73
2023/08/06 03:02:04;;;;;;;11.55;10.75;;;;;;;;;;5001907;28;20034;-73
2023/08/06 03:04:41;;;;;;;11.77;10.80;;;;;;;;;;5001867;28;20038;-73
2023/08/06 03:07:08;;;;;;;13.15;11.82;;;;;;;;;;5002898;28;20026;-73
2023/08/06 03:09:42;;;;;;;11.27;10.40;;;;;;;;;;4993483;28;20037;-73
2023/08/06 03:12:08;;;;;;;11.60;10.80;;;;;;;;;;4999753;28;20045;-73
2023/08/06 03:14:34;;;;;;;11.13;10.32;;;;;;;;;;5000092;28;20038;-73
2023/08/06 03:16:59;;;;;;;12.05;11.18;;;;;;;;;;5001006;28;20045;-73
2023/08/06 03:19:25;;;;;;;11.43;10.65;;;;;;;;;;4999019;28;20036;-73
2023/08/06 03:21:51;;;;;;;11.75;10.85;;;;;;;;;;5000413;28;20391;-73
2023/08/06 03:24:16;;;;;;;11.90;10.90;;;;;;;;;;5000081;28;20092;-74
2023/08/06 03:26:44;;;;;;;11.52;10.52;;;;;;;;;;4998406;28;20505;-73
2023/08/06 03:29:11;;;;;;;11.63;10.55;;;;;;;;;;5000212;28;20044;-73
2023/08/06 03:31:37;;;;;;;10.90;10.10;;;;;;;;;;4998869;28;20040;-73
2023/08/06 03:34:03;;;;;;;10.98;10.25;;;;;;;;;;4995822;28;20045;-73
2023/08/06 03:36:31;;;;;;;11.30;10.50;;;;;;;;;;5004862;28;20066;-73
2023/08/06 03:38:56;;;;;;;10.57;9.68;;;;;;;;;;5004095;28;20073;-74
2023/08/06 03:41:22;;;;;;;11.27;10.30;;;;;;;;;;4999751;28;20026;-74
2023/08/06 03:43:47;;;;;;;11.20;10.40;;;;;;;;;;4998280;28;20108;-73
2023/08/06 03:46:19;;;;;;;10.35;9.65;;;;;;;;;;4998794;28;20044;-74
2023/08/06 03:48:45;;;;;;;10.77;10.07;;;;;;;;;;4999683;28;20041;-75
2023/08/06 03:51:12;;;;;;;11.07;9.95;;;;;;;;;;4998702;28;20389;-74
2023/08/06 03:53:39;;;;;;;10.88;9.88;;;;;;;;;;4998712;28;20041;-74
2023/08/06 03:56:04;;;;;;;10.50;9.70;;;;;;;;;;4998915;28;20038;-75
2023/08/06 03:58:31;;;;;;;9.75;9.05;;;;;;;;;;4997009;28;20066;-74
2023/08/06 04:00:59;;;;;;;10.05;9.32;;;;;;;;;;5000626;28;20054;-74
2023/08/06 04:03:27;;;;;;;10.65;9.75;;;;;;;;;;5001243;28;20105;-74
2023/08/06 04:05:52;;;;;;;13.80;9.90;;;;;;;;;;5019068;28;20109;-75
2023/08/06 04:08:19;;;;;;;10.68;9.70;;;;;;;;;;5001310;28;20042;-75
2023/08/06 04:10:44;;;;;;;10.32;9.57;;;;;;;;;;5004452;28;20045;-74
2023/08/06 04:13:10;;;;;;;10.23;9.43;;;;;;;;;;5004368;28;20049;-75
2023/08/06 04:15:35;;;;;;;10.07;9.35;;;;;;;;;;5017363;28;20045;-75
2023/08/06 04:18:01;;;;;;;10.88;9.98;;;;;;;;;;5020849;28;20436;-74
2023/08/06 04:20:26;;;;;;;10.20;9.35;;;;;;;;;;5003117;28;20038;-74
2023/08/06 04:22:54;;;;;;;10.30;9.60;;;;;;;;;;5001086;28;20109;-74
2023/08/06 04:25:21;;;;;;;9.95;9.27;;;;;;;;;;5002390;28;20057;-74
2023/08/06 04:27:47;;;;;;;10.50;9.48;;;;;;;;;;5003506;28;20030;-74
2023/08/06 04:30:13;;;;;;;9.07;8.48;;;;;;;;;;5002535;28;20030;-74
2023/08/06 04:32:39;;;;;;;9.15;8.55;;;;;;;;;;5002771;28;20080;-74
2023/08/06 04:35:06;;;;;;;10.52;9.57;;;;;;;;;;5001132;28;20068;-74
2023/08/06 04:37:32;;;;;;;9.85;9.00;;;;;;;;;;5006901;28;20036;-74
2023/08/06 04:39:58;;;;;;;9.85;9.15;;;;;;;;;;5006548;28;20034;-74
2023/08/06 04:42:23;;;;;;;9.25;8.55;;;;;;;;;;5003006;28;20025;-75
2023/08/06 04:44:49;;;;;;;10.07;9.00;;;;;;;;;;5007996;28;20038;-74
2023/08/06 04:47:15;;;;;;;9.40;8.52;;;;;;;;;;5006857;28;20042;-74
2023/08/06 04:49:41;;;;;;;9.48;8.77;;;;;;;;;;5007921;28;20037;-74
2023/08/06 04:52:06;;;;;;;9.50;8.90;;;;;;;;;;5003854;28;20125;-74
2023/08/06 04:54:32;;;;;;;10.27;9.32;;;;;;;;;;5008094;28;20044;-74
2023/08/06 04:56:57;;;;;;;9.48;8.65;;;;;;;;;;5012114;28;20037;-74
2023/08/06 04:59:23;;;;;;;9.40;8.60;;;;;;;;;;5007876;28;20054;-74
2023/08/06 05:01:48;;;;;;;9.65;8.95;;;;;;;;;;5005050;28;20029;-74
2023/08/06 05:04:14;;;;;;;9.32;8.45;;;;;;;;;;5014276;28;20034;-74
2023/08/06 05:06:40;;;;;;;9.38;8.68;;;;;;;;;;5012185;28;20511;-74
2023/08/06 05:09:06;;;;;;;8.98;8.38;;;;;;;;;;5005759;28;20045;-74
2023/08/06 05:11:31;;;;;;;8.23;7.70;;;;;;;;;;5006346;28;20038;-74
2023/08/06 05:13:57;;;;;;;8.75;8.20;;;;;;;;;;5007739;28;20037;-74
2023/08/06 05:16:24;;;;;;;8.50;7.90;;;;;;;;;;5007772;28;20131;-74
2023/08/06 05:18:49;;;;;;;9.25;8.45;;;;;;;;;;5007493;28;20860;-75
2023/08/06 05:21:16;;;;;;;8.65;8.05;;;;;;;;;;5006675;28;20037;-74
2023/08/06 05:23:42;;;;;;;9.35;8.68;;;;;;;;;;5006074;28;20512;-74
2023/08/06 05:26:08;;;;;;;9.60;8.85;;;;;;;;;;5007736;28;20103;-74
2023/08/06 05:28:34;;;;;;;10.88;8.27;;;;;;;;;;5006166;28;20497;-74
2023/08/06 05:31:03;;;;;;;8.50;7.80;;;;;;;;;;5007384;28;20117;-74
2023/08/06 05:33:29;;;;;;;8.85;8.25;;;;;;;;;;5005777;28;20052;-74
2023/08/06 05:35:54;;;;;;;8.82;8.02;;;;;;;;;;5006125;28;20026;-74
2023/08/06 05:38:20;;;;;;;9.23;8.45;;;;;;;;;;5007050;28;20038;-74
2023/08/06 05:40:46;;;;;;;8.38;7.88;;;;;;;;;;5005027;28;20030;-74
2023/08/06 05:43:11;;;;;;;8.30;7.70;;;;;;;;;;5006997;28;20033;-74
2023/08/06 05:45:37;;;;;;;8.70;8.07;;;;;;;;;;5005125;28;20412;-74
2023/08/06 05:48:03;;;;;;;9.15;8.40;;;;;;;;;;5007089;28;20446;-74
2023/08/06 05:50:28;;;;;;;8.60;8.00;;;;;;;;;;5006703;28;20776;-74
2023/08/06 05:52:54;;;;;;;8.75;8.02;;;;;;;;;;5001274;28;20345;-74
2023/08/06 05:55:20;;;;;;;8.48;7.75;;;;;;;;;;5008077;28;20452;-74
2023/08/06 05:57:46;;;;;;;9.02;8.50;;;;;;;;;;5008117;28;20047;-74
2023/08/06 06:00:11;;;;;;;8.80;8.30;;;;;;;;;;5006579;28;20033;-74
2023/08/06 06:02:40;;;;;;;9.35;8.55;;;;;;;;;;5005669;28;20125;-74
2023/08/06 06:05:06;;;;;;;9.15;8.55;;;;;;;;;;5006899;28;20133;-75
2023/08/06 06:07:31;;;;;;;9.10;8.60;;;;;;;;;;5006726;28;20175;-75
2023/08/06 06:09:57;;;;;;;9.02;8.30;;;;;;;;;;5005740;28;20041;-74
2023/08/06 06:12:22;;;;;;;8.75;8.00;;;;;;;;;;5006702;28;20124;-75
2023/08/06 06:14:48;;;;;;;8.98;8.38;;;;;;;;;;5001518;28;20500;-75
2023/08/06 06:17:13;;;;;;;8.30;7.80;;;;;;;;;;5006367;28;20033;-74
2023/08/06 06:19:39;;;;;;;8.88;8.13;;;;;;;;;;5006220;28;20757;-74
2023/08/06 06:22:05;;;;;;;8.30;7.80;;;;;;;;;;5004640;28;20686;-74
2023/08/06 06:24:30;;;;;;;8.50;7.93;;;;;;;;;;5006514;28;20029;-74
2023/08/06 06:26:56;;;;;;;8.38;7.85;;;;;;;;;;5005338;28;20030;-75
2023/08/06 06:29:21;;;;;;;8.50;7.72;;;;;;;;;;5002834;28;20034;-74
2023/08/06 06:31:47;;;;;;;8.38;7.78;;;;;;;;;;5006079;28;20081;-75
2023/08/06 06:34:12;;;;;;;8.82;7.95;;;;;;;;;;5006235;28;20116;-74
2023/08/06 06:36:38;;;;;;;8.98;8.18;;;;;;;;;;5004655;28;20046;-75
2023/08/06 06:39:03;;;;;;;8.98;8.32;;;;;;;;;;5005686;28;20057;-75
2023/08/06 06:41:31;;;;;;;8.25;7.68;;;;;;;;;;5006019;28;20080;-74
2023/08/06 06:44:03;;;;;;;8.57;8.07;;;;;;;;;;5003632;28;20038;-75
2023/08/06 06:46:29;;;;;;;8.90;8.20;;;;;;;;;;5002906;28;20404;-74
2023/08/06 06:48:54;;;;;;;8.55;7.85;;;;;;;;;;5005059;28;20034;-75
2023/08/06 06:51:20;;;;;;;8.48;7.80;;;;;;;;;;5000763;28;20041;-74
2023/08/06 06:53:45;;;;;;;8.60;8.00;;;;;;;;;;5006217;28;20569;-75
2023/08/06 06:56:11;;;;;;;8.38;7.88;;;;;;;;;;5005045;28;20037;-75
2023/08/06 06:58:38;;;;;;;8.60;8.00;;;;;;;;;;5004658;28;20030;-74
2023/08/06 07:01:04;;;;;;;8.52;7.95;;;;;;;;;;4987713;28;20040;-75
2023/08/06 07:03:29;;;;;;;9.77;8.73;;;;;;;;;;5004331;28;20600;-75
2023/08/06 07:05:58;;;;;;;9.18;8.38;;;;;;;;;;5005679;28;20042;-75
2023/08/06 07:08:24;;;;;;;;;;;;;;;;;;5005891;28;20044;-74
2023/08/06 07:10:50;;;;;;;9.18;8.40;;;;;;;;;;5005479;28;20011;-74
2023/08/06 07:13:16;;;;;;;9.55;9.00;;;;;;;;;;5004482;28;20045;-74
2023/08/06 07:15:42;;;;;;;9.20;8.55;;;;;;;;;;5003296;28;20892;-75
2023/08/06 07:18:07;;;;;;;9.07;8.48;;;;;;;;;;5005376;28;20531;-75
2023/08/06 07:20:34;;;;;;;9.88;9.05;;;;;;;;;;5003956;28;20056;-74
2023/08/06 07:23:00;;;;;;;8.98;8.48;;;;;;;;;;5003973;28;20037;-74
2023/08/06 07:25:26;;;;;;;8.98;8.38;;;;;;;;;;5005220;28;20033;-74
2023/08/06 07:27:51;;;;;;;9.18;8.57;;;;;;;;;;5005021;28;20659;-74
2023/08/06 07:30:17;;;;;;;8.90;8.10;;;;;;;;;;5003380;28;20034;-74
2023/08/06 07:32:42;;;;;;;9.15;8.55;;;;;;;;;;4986732;28;20038;-75
2023/08/06 07:35:12;;;;;;;8.77;8.27;;;;;;;;;;5008563;28;20056;-75
2023/08/06 07:37:38;;;;;;;8.30;7.70;;;;;;;;;;4997944;28;20030;-74
2023/08/06 07:40:05;;;;;;;8.32;7.82;;;;;;;;;;4999654;28;20033;-75
2023/08/06 07:42:30;;;;;;;7.82;7.30;;;;;;;;;;5000473;28;20168;-74
2023/08/06 07:44:58;;;;;;;8.40;7.80;;;;;;;;;;4999626;28;20042;-75
2023/08/06 07:47:24;;;;;;;7.95;7.45;;;;;;;;;;4992809;28;20053;-74
2023/08/06 07:49:50;;;;;;;8.85;8.13;;;;;;;;;;4996588;28;20658;-75
2023/08/06 07:52:15;;;;;;;8.65;8.15;;;;;;;;;;4997535;28;20120;-74
2023/08/06 07:54:41;;;;;;;8.70;7.97;;;;;;;;;;5001465;28;20049;-74
2023/08/06 07:57:07;;;;;;;8.20;7.80;;;;;;;;;;5002504;28;20037;-75
2023/08/06 07:59:32;;;;;;;8.00;7.43;;;;;;;;;;5000495;28;20038;-75
2023/08/06 08:01:58;;;;;;;7.95;7.55;;;;;;;;;;4998032;28;20046;-75
2023/08/06 08:04:24;;;;;;;8.10;7.70;;;;;;;;;;5001843;28;20073;-75
2023/08/06 08:06:50;;;;;;;7.95;7.55;;;;;;;;;;5002390;28;20057;-75
2023/08/06 08:09:15;;;;;;;8.00;7.50;;;;;;;;;;4995255;28;20026;-74
2023/08/06 08:11:41;;;;;;;8.10;7.70;;;;;;;;;;5002953;28;20041;-75
2023/08/06 08:14:07;;;;;;;8.40;7.90;;;;;;;;;;5002443;28;20042;-74
2023/08/06 08:16:33;;;;;;;7.80;7.30;;;;;;;;;;5003065;28;20042;-75
2023/08/06 08:18:58;;;;;;;7.80;7.30;;;;;;;;;;5001238;28;20077;-75
2023/08/06 08:21:24;;;;;;;8.23;7.82;;;;;;;;;;5001559;28;20041;-75
2023/08/06 08:23:50;;;;;;;8.50;8.00;;;;;;;;;;5002959;28;20034;-75
2023/08/06 08:26:16;;;;;;;7.78;7.38;;;;;;;;;;5001354;28;20034;-75
2023/08/06 08:28:42;;;;;;;8.10;7.70;;;;;;;;;;5002045;28;20382;-75
2023/08/06 08:31:11;;;;;;;7.70;7.30;;;;;;;;;;5000815;28;20108;-75
2023/08/06 08:33:39;;;;;;;;;;;;;;;;;;5002459;28;20061;-75
2023/08/06 08:36:05;;;;;;;8.18;7.53;;;;;;;;;;5001525;28;20297;-75
2023/08/06 08:38:31;;;;;;;7.95;7.55;;;;;;;;;;5002416;28;20504;-75
2023/08/06 08:40:57;;;;;;;7.70;7.30;;;;;;;;;;5002710;28;20042;-75
2023/08/06 08:43:23;;;;;;;8.10;7.70;;;;;;;;;;4999629;28;20025;-75
2023/08/06 08:45:58;;;;;;;8.40;7.90;;;;;;;;;;4998630;28;20048;-75
2023/08/06 08:48:24;;;;;;;8.43;7.90;;;;;;;;;;4999300;28;20036;-75
2023/08/06 08:50:50;;;;;;;7.82;7.43;;;;;;;;;;4996470;28;20121;-76
2023/08/06 08:53:17;;;;;;;8.57;8.07;;;;;;;;;;4995881;28;20038;-75
2023/08/06 08:55:46;;;;;;;7.85;7.45;;;;;;;;;;4998621;28;20040;-76
2023/08/06 08:58:11;;;;;;;;;;;;;;;;;;4996638;28;20126;-76
2023/08/06 09:00:38;;;;;;;7.85;7.45;;;;;;;;;;4999169;28;19960;-76
2023/08/06 09:03:06;;;;;;;8.13;7.72;;;;;;;;;;4997632;28;20288;-76
2023/08/06 09:05:32;;;;;;;7.68;7.18;;;;;;;;;;4999569;28;21080;-76
2023/08/06 09:08:03;;;;;;;7.97;7.47;;;;;;;;;;4998097;28;20500;-76
2023/08/06 09:10:29;;;;;;;7.82;7.43;;;;;;;;;;4995997;28;20034;-76
2023/08/06 09:12:57;;;;;;;7.85;7.45;;;;;;;;;;4998046;28;20038;-76
2023/08/06 09:15:25;;;;;;;8.15;7.72;;;;;;;;;;4999746;28;20562;-75
2023/08/06 09:17:55;;;;;;;7.85;7.45;;;;;;;;;;4999962;28;20128;-76
2023/08/06 09:20:20;;;;;;;;;;;;;;;;;;4996056;28;20065;-76
2023/08/06 09:22:47;;;;;;;7.97;7.57;;;;;;;;;;5003042;28;19964;-76
2023/08/06 09:25:21;;;;;;;8.18;7.78;;;;;;;;;;5002430;28;20081;-75
2023/08/06 09:27:47;;;;;;;7.63;7.22;;;;;;;;;;5001315;28;20042;-76
2023/08/06 09:30:32;;;;;;;7.63;7.22;;;;;;;;;;5001480;28;20071;-76
2023/08/06 09:32:58;;;;;;;7.72;7.32;;;;;;;;;;5001349;28;20041;-75
2023/08/06 09:35:23;;;;;;;8.02;7.63;;;;;;;;;;5000875;28;20114;-75
2023/08/06 09:37:49;;;;;;;8.00;7.60;;;;;;;;;;4994781;28;20038;-76
2023/08/06 09:40:26;;;;;;;8.20;7.70;;;;;;;;;;4984852;28;20030;-75
2023/08/06 09:42:52;;;;;;;8.25;7.78;;;;;;;;;;5001992;28;20057;-75
2023/08/06 09:45:18;;;;;;;8.57;8.15;;;;;;;;;;5002287;28;20111;-75
2023/08/06 09:47:43;;;;;;;8.43;8.02;;;;;;;;;;4999048;28;20108;-75
2023/08/06 09:50:19;;;;;;;8.27;7.78;;;;;;;;;;5001759;28;20069;-75
2023/08/06 09:52:46;;;;;;;8.38;7.97;;;;;;;;;;4999749;28;20456;-75
2023/08/06 09:55:13;;;;;;;8.38;7.88;;;;;;;;;;4999241;28;20065;-76
2023/08/06 09:57:41;;;;;;;8.23;7.72;;;;;;;;;;5001973;28;20113;-75
2023/08/06 10:00:09;;;;;;;8.30;7.90;;;;;;;;;;5001588;28;20034;-75
2023/08/06 10:02:42;;;;;;;8.05;7.65;;;;;;;;;;5003685;28;20026;-76
2023/08/06 10:05:08;;;;;;;7.90;7.40;;;;;;;;;;5001223;28;20037;-76
2023/08/06 10:07:34;;;;;;;7.57;7.18;;;;;;;;;;5005028;28;20136;-76
2023/08/06 10:10:00;;;;;;;7.72;7.32;;;;;;;;;;5001169;28;20042;-76
2023/08/06 10:12:34;;;;;;;7.68;7.28;;;;;;;;;;5001766;28;20437;-76
2023/08/06 10:15:03;;;;;;;7.68;7.13;;;;;;;;;;4999623;28;20127;-75
2023/08/06 10:17:31;;;;;;;7.80;7.40;;;;;;;;;;5000348;28;20493;-75
2023/08/06 10:19:59;;;;;;;7.82;7.25;;;;;;;;;;4998497;28;20441;-75
2023/08/06 10:22:25;;;;;;;8.00;7.60;;;;;;;;;;4999402;28;20068;-75
2023/08/06 10:25:04;;;;;;;8.05;7.65;;;;;;;;;;5000697;28;20049;-75
2023/08/06 10:27:41;;;;;;;7.93;7.53;;;;;;;;;;5002380;28;20076;-75
2023/08/06 10:30:28;;;;;;;7.00;6.60;;;;;;;;;;5000448;28;20029;-75
2023/08/06 10:33:02;;;;;;;7.93;7.50;;;;;;;;;;4999455;28;20045;-75
2023/08/06 10:35:40;;;;;;;7.53;7.13;;;;;;;;;;5001646;28;20037;-75
2023/08/06 10:38:14;;;;;;;8.00;7.50;;;;;;;;;;5000793;28;20040;-76
2023/08/06 10:40:41;;;;;;;8.43;7.93;;;;;;;;;;5001327;28;20028;-75
2023/08/06 10:43:08;;;;;;;7.18;6.80;;;;;;;;;;5000657;28;20550;-75
2023/08/06 10:45:35;;;;;;;7.68;7.28;;;;;;;;;;5001692;28;20042;-75
2023/08/06 10:48:01;;;;;;;7.22;6.85;;;;;;;;;;5002285;28;20523;-75
2023/08/06 10:50:27;;;;;;;7.60;7.20;;;;;;;;;;4999591;28;20038;-75
2023/08/06 10:52:53;;;;;;;8.05;7.45;;;;;;;;;;5001200;28;20426;-75
2023/08/06 10:55:24;;;;;;;7.65;7.20;;;;;;;;;;4999770;28;20571;-75
2023/08/06 10:57:50;;;;;;;7.38;6.97;;;;;;;;;;5000786;28;20037;-75
2023/08/06 11:00:15;;;;;;;8.40;7.80;;;;;;;;;;4988252;28;20030;-75
2023/08/06 11:02:41;;;;;;;8.07;7.68;;;;;;;;;;5001188;28;20844;-75
2023/08/06 11:05:08;;;;;;;8.07;7.68;;;;;;;;;;4999968;28;20965;-75
2023/08/06 11:07:35;;;;;;;8.10;7.70;;;;;;;;;;5000644;28;20042;-75
2023/08/06 11:10:05;;;;;;;7.70;7.30;;;;;;;;;;4999473;28;20042;-75
2023/08/06 11:12:34;;;;;;;7.90;7.40;;;;;;;;;;5000388;28;20030;-75
2023/08/06 11:15:01;;;;;;;7.90;7.50;;;;;;;;;;5000806;28;20096;-75
2023/08/06 11:17:28;;;;;;;8.27;7.68;;;;;;;;;;4999406;28;20995;-75
2023/08/06 11:19:54;;;;;;;8.40;7.90;;;;;;;;;;4999206;28;20036;-75
2023/08/06 11:22:21;;;;;;;8.10;7.60;;;;;;;;;;5000358;28;20029;-75
2023/08/06 11:24:47;;;;;;;8.57;7.97;;;;;;;;;;4999255;28;20046;-75
2023/08/06 11:27:14;;;;;;;9.60;9.00;;;;;;;;;;5000485;28;20038;-75
2023/08/06 11:29:44;;;;;;;9.15;8.45;;;;;;;;;;5000495;28;20434;-76
2023/08/06 11:32:10;;;;;;;9.02;8.52;;;;;;;;;;4999097;28;20091;-76
2023/08/06 11:34:37;;;;;;;8.98;8.48;;;;;;;;;;5000371;28;20362;-76
2023/08/06 11:37:06;;;;;;;8.80;8.35;;;;;;;;;;5000143;28;20042;-75
2023/08/06 11:39:33;;;;;;;8.48;7.85;;;;;;;;;;4999592;28;20044;-76
2023/08/06 11:42:02;;;;;;;8.30;7.82;;;;;;;;;;4997762;28;20046;-76
2023/08/06 11:44:35;;;;;;;9.13;8.52;;;;;;;;;;4999532;28;20029;-76
2023/08/06 11:47:05;;;;;;;8.32;7.82;;;;;;;;;;4999769;28;20041;-76
2023/08/06 11:49:46;;;;;;;8.93;8.32;;;;;;;;;;4999127;28;20041;-77
2023/08/06 11:52:23;;;;;;;8.98;8.43;;;;;;;;;;4990559;28;20045;-77
2023/08/06 11:55:11;;;;;;;8.85;8.35;;;;;;;;;;4997612;28;20045;-76
2023/08/06 11:57:39;;;;;;;8.70;8.20;;;;;;;;;;4997135;28;20038;-76
2023/08/06 12:00:13;;;;;;;8.82;8.32;;;;;;;;;;4998403;28;20042;-77
2023/08/06 12:02:41;;;;;;;9.15;8.45;;;;;;;;;;4995969;28;20129;-76
2023/08/06 12:05:11;;;;;;;8.93;8.43;;;;;;;;;;4996850;28;20061;-76
2023/08/06 12:07:38;;;;;;;8.88;8.32;;;;;;;;;;4995130;28;20648;-77
2023/08/06 12:10:04;;;;;;;9.02;8.45;;;;;;;;;;4998082;28;20120;-77
2023/08/06 12:12:30;;;;;;;8.77;8.07;;;;;;;;;;4997075;28;20457;-75
2023/08/06 12:14:56;;;;;;;9.20;8.35;;;;;;;;;;4999308;28;20033;-78
2023/08/06 12:17:23;;;;;;;8.68;8.18;;;;;;;;;;4999980;28;20053;-77
2023/08/06 12:19:48;;;;;;;8.90;8.40;;;;;;;;;;4996233;28;20041;-77
2023/08/06 12:22:14;;;;;;;8.93;8.32;;;;;;;;;;4999163;28;20038;-78
2023/08/06 12:24:44;;;;;;;9.57;8.98;;;;;;;;;;5000058;28;20037;-76
2023/08/06 12:27:10;;;;;;;8.73;8.00;;;;;;;;;;4988635;28;20029;-77
2023/08/06 12:29:40;;;;;;;8.55;8.05;;;;;;;;;;5003280;28;20061;-76
2023/08/06 12:32:06;;;;;;;9.18;8.65;;;;;;;;;;5000721;28;20029;-78
2023/08/06 12:34:32;;;;;;;8.98;8.48;;;;;;;;;;4991570;28;20980;-75
2023/08/06 12:36:57;;;;;;;9.60;9.00;;;;;;;;;;4996978;28;20124;-78
2023/08/06 12:39:23;;;;;;;9.30;8.80;;;;;;;;;;4996808;28;20512;-78
2023/08/06 12:41:49;;;;;;;9.27;8.52;;;;;;;;;;4994786;28;20045;-78
2023/08/06 12:44:15;;;;;;;9.02;8.43;;;;;;;;;;4997122;28;20041;-76
2023/08/06 12:46:40;;;;;;;9.02;8.52;;;;;;;;;;5003036;28;20041;-79
2023/08/06 12:49:06;;;;;;;9.13;8.63;;;;;;;;;;4998493;28;20034;-76
2023/08/06 12:51:33;;;;;;;9.20;8.70;;;;;;;;;;4997317;28;20049;-77
2023/08/06 12:53:59;;;;;;;8.88;8.25;;;;;;;;;;5000027;28;20041;-77
2023/08/06 12:56:25;;;;;;;8.45;8.00;;;;;;;;;;4998540;28;20378;-76
2023/08/06 12:58:50;;;;;;;9.20;8.50;;;;;;;;;;5000402;28;20576;-76
2023/08/06 13:01:16;;;;;;;9.20;8.70;;;;;;;;;;5001573;28;20034;-78
2023/08/06 13:03:42;;;;;;;8.85;8.35;;;;;;;;;;4999414;28;20520;-76
2023/08/06 13:06:09;;;;;;;8.73;8.23;;;;;;;;;;4999931;28;20088;-76
2023/08/06 13:08:35;;;;;;;8.25;7.85;;;;;;;;;;5002292;28;20042;-76
2023/08/06 13:11:01;;;;;;;8.40;7.90;;;;;;;;;;5003559;28;20041;-77
2023/08/06 13:13:27;;;;;;;8.98;8.48;;;;;;;;;;5001915;28;20084;-76
2023/08/06 13:15:53;;;;;;;8.60;8.02;;;;;;;;;;5005227;28;20041;-76
2023/08/06 13:18:18;;;;;;;8.80;8.30;;;;;;;;;;5005477;28;20455;-76
2023/08/06 13:20:44;;;;;;;9.02;8.43;;;;;;;;;;5007277;28;20037;-76
2023/08/06 13:23:09;;;;;;;9.82;9.23;;;;;;;;;;5004990;28;20037;-77
2023/08/06 13:25:37;;;;;;;9.40;8.80;;;;;;;;;;5003990;28;20117;-77
2023/08/06 13:28:03;;;;;;;9.25;8.65;;;;;;;;;;5006830;28;20073;-77
2023/08/06 13:30:29;;;;;;;8.82;8.32;;;;;;;;;;5008522;28;20088;-76
2023/08/06 13:32:56;;;;;;;8.50;8.00;;;;;;;;;;5007870;28;20037;-76
2023/08/06 13:35:22;;;;;;;9.10;8.50;;;;;;;;;;5006700;28;20042;-76
2023/08/06 13:37:48;;;;;;;9.10;8.40;;;;;;;;;;5006578;28;20109;-77
2023/08/06 13:40:14;;;;;;;9.13;8.52;;;;;;;;;;5010287;28;20136;-76
2023/08/06 13:42:39;;;;;;;9.65;9.00;;;;;;;;;;5006001;28;20038;-77
2023/08/06 13:45:06;;;;;;;8.70;8.15;;;;;;;;;;5006592;28;20095;-76
2023/08/06 13:47:32;;;;;;;8.80;8.27;;;;;;;;;;5006016;28;20493;-75
2023/08/06 13:49:58;;;;;;;8.68;8.18;;;;;;;;;;5003019;28;20096;-76
2023/08/06 13:52:26;;;;;;;8.60;8.07;;;;;;;;;;5006453;28;20636;-76
2023/08/06 13:54:51;;;;;;;9.32;8.73;;;;;;;;;;5006155;28;20141;-76
2023/08/06 13:57:17;;;;;;;8.57;8.00;;;;;;;;;;5012185;28;20120;-77
2023/08/06 13:59:43;;;;;;;7.78;7.38;;;;;;;;;;5004581;28;20121;-76
2023/08/06 14:02:10;;;;;;;8.32;7.80;;;;;;;;;;5006182;28;20390;-77
2023/08/06 14:04:37;;;;;;;8.25;7.65;;;;;;;;;;5006640;28;20150;-77
2023/08/06 14:07:03;;;;;;;8.45;7.78;;;;;;;;;;5002038;28;20037;-77
2023/08/06 14:09:29;;;;;;;8.10;7.70;;;;;;;;;;5002708;28;20119;-76
2023/08/06 14:11:54;;;;;;;8.57;8.07;;;;;;;;;;5003722;28;20045;-76
2023/08/06 14:14:25;;;;;;;8.85;8.35;;;;;;;;;;5003407;28;20121;-77
2023/08/06 14:16:52;;;;;;;8.45;7.97;;;;;;;;;;5001156;28;20041;-76
2023/08/06 14:19:18;;;;;;;9.40;8.80;;;;;;;;;;5001479;28;20042;-77
2023/08/06 14:21:43;;;;;;;8.70;8.20;;;;;;;;;;5006641;28;20616;-76
2023/08/06 14:24:09;;;;;;;8.32;7.82;;;;;;;;;;5002151;28;20072;-76
2023/08/06 14:26:34;;;;;;;7.95;7.55;;;;;;;;;;5000504;28;20125;-76
2023/08/06 14:29:01;;;;;;;8.93;8.10;;;;;;;;;;5003243;28;20069;-75
2023/08/06 14:31:26;;;;;;;9.05;8.38;;;;;;;;;;5004294;28;20088;-76
2023/08/06 14:33:52;;;;;;;8.43;7.82;;;;;;;;;;4998423;28;20459;-76